sensor_id;sensor_type;location;lat;lon;timestamp;P1;P2;P0
64229;PMS5003;50547;49.498;0.092;2024-03-23T00:51:33;6;6;
64229;PMS5003;50547;49.498;0.092;2024-03-23T00:54:02;6;6;
64229;PMS5003;50547;49.498;0.092;2024-03-23T00:56:31;5;5;
64229;PMS5003;50547;49.498;0.092;2024-03-23T00:59:00;6;6;
64229;PMS5003;50547;49.498;0.092;2024-03-23T01:01:29;6;6;
64229;PMS5003;50547;49.498;0.092;2024-03-23T01:03:58;7;7;
64229;PMS5003;50547;49.498;0.092;2024-03-23T01:06:28;7;7;
64229;PMS5003;50547;49.498;0.092;2024-03-23T01:08:57;6;6;
64229;PMS5003;50547;49.498;0.092;2024-03-23T01:11:26;6;6;
64229;PMS5003;50547;49.498;0.092;2024-03-23T01:13:56;7;7;
64229;PMS5003;50547;49.498;0.092;2024-03-23T01:16:25;5;5;
64229;PMS5003;50547;49.498;0.092;2024-03-23T01:18:54;4;4;
64229;PMS5003;50547;49.498;0.092;2024-03-23T01:21:23;5;5;
64229;PMS5003;50547;49.498;0.092;2024-03-23T01:23:52;5;5;
64229;PMS5003;50547;49.498;0.092;2024-03-23T01:26:21;6;6;
64229;PMS5003;50547;49.498;0.092;2024-03-23T01:28:50;7;7;
64229;PMS5003;50547;49.498;0.092;2024-03-23T01:31:19;5;5;
64229;PMS5003;50547;49.498;0.092;2024-03-23T01:33:49;5;5;
64229;PMS5003;50547;49.498;0.092;2024-03-23T01:36:18;5;5;
64229;PMS5003;50547;49.498;0.092;2024-03-23T01:38:47;4;4;
64229;PMS5003;50547;49.498;0.092;2024-03-23T01:41:16;7;7;
64229;PMS5003;50547;49.498;0.092;2024-03-23T01:43:45;7;7;
64229;PMS5003;50547;49.498;0.092;2024-03-23T01:46:14;5;5;
64229;PMS5003;50547;49.498;0.092;2024-03-23T01:48:43;4;4;
64229;PMS5003;50547;49.498;0.092;2024-03-23T01:51:12;4;4;
64229;PMS5003;50547;49.498;0.092;2024-03-23T01:53:42;5;5;
64229;PMS5003;50547;49.498;0.092;2024-03-23T01:56:11;4;4;
64229;PMS5003;50547;49.498;0.092;2024-03-23T01:58:40;4;4;
64229;PMS5003;50547;49.498;0.092;2024-03-23T02:01:09;1;1;
64229;PMS5003;50547;49.498;0.092;2024-03-23T02:03:38;2;2;
64229;PMS5003;50547;49.498;0.092;2024-03-23T02:06:07;1;1;
64229;PMS5003;50547;49.498;0.092;2024-03-23T02:08:37;2;2;
64229;PMS5003;50547;49.498;0.092;2024-03-23T02:11:06;3;3;
64229;PMS5003;50547;49.498;0.092;2024-03-23T02:13:35;3;3;
64229;PMS5003;50547;49.498;0.092;2024-03-23T02:16:05;4;4;
64229;PMS5003;50547;49.498;0.092;2024-03-23T02:18:34;3;3;
64229;PMS5003;50547;49.498;0.092;2024-03-23T02:21:03;5;5;
64229;PMS5003;50547;49.498;0.092;2024-03-23T02:23:33;3;3;
64229;PMS5003;50547;49.498;0.092;2024-03-23T02:26:02;4;4;
64229;PMS5003;50547;49.498;0.092;2024-03-23T02:28:31;4;4;
64229;PMS5003;50547;49.498;0.092;2024-03-23T02:31:00;4;4;
64229;PMS5003;50547;49.498;0.092;2024-03-23T02:33:29;4;4;
64229;PMS5003;50547;49.498;0.092;2024-03-23T02:35:59;5;5;
64229;PMS5003;50547;49.498;0.092;2024-03-23T02:38:28;5;5;
64229;PMS5003;50547;49.498;0.092;2024-03-23T02:41:01;5;5;
64229;PMS5003;50547;49.498;0.092;2024-03-23T02:43:31;7;7;
64229;PMS5003;50547;49.498;0.092;2024-03-23T02:46:00;8;8;
64229;PMS5003;50547;49.498;0.092;2024-03-23T02:48:29;6;6;
64229;PMS5003;50547;49.498;0.092;2024-03-23T02:50:58;7;7;
64229;PMS5003;50547;49.498;0.092;2024-03-23T02:53:27;7;7;
64229;PMS5003;50547;49.498;0.092;2024-03-23T02:55:57;7;7;
64229;PMS5003;50547;49.498;0.092;2024-03-23T02:58:26;5;5;
64229;PMS5003;50547;49.498;0.092;2024-03-23T03:00:55;7;7;
64229;PMS5003;50547;49.498;0.092;2024-03-23T03:03:24;6;6;
64229;PMS5003;50547;49.498;0.092;2024-03-23T03:05:54;5;5;
64229;PMS5003;50547;49.498;0.092;2024-03-23T03:08:24;4;4;
64229;PMS5003;50547;49.498;0.092;2024-03-23T03:10:53;5;5;
64229;PMS5003;50547;49.498;0.092;2024-03-23T03:13:22;7;7;
64229;PMS5003;50547;49.498;0.092;2024-03-23T03:15:51;4;4;
64229;PMS5003;50547;49.498;0.092;2024-03-23T03:18:21;5;5;
64229;PMS5003;50547;49.498;0.092;2024-03-23T03:20:50;6;6;
64229;PMS5003;50547;49.498;0.092;2024-03-23T03:23:23;4;4;
64229;PMS5003;50547;49.498;0.092;2024-03-23T03:25:52;6;6;
64229;PMS5003;50547;49.498;0.092;2024-03-23T03:28:21;7;7;
64229;PMS5003;50547;49.498;0.092;2024-03-23T03:30:50;7;7;
64229;PMS5003;50547;49.498;0.092;2024-03-23T03:33:19;8;8;
64229;PMS5003;50547;49.498;0.092;2024-03-23T03:35:48;7;7;
64229;PMS5003;50547;49.498;0.092;2024-03-23T03:38:18;7;7;
64229;PMS5003;50547;49.498;0.092;2024-03-23T03:40:47;5;5;
64229;PMS5003;50547;49.498;0.092;2024-03-23T03:43:16;6;6;
64229;PMS5003;50547;49.498;0.092;2024-03-23T03:45:51;7;7;
64229;PMS5003;50547;49.498;0.092;2024-03-23T03:48:20;7;7;
64229;PMS5003;50547;49.498;0.092;2024-03-23T03:50:49;5;5;
64229;PMS5003;50547;49.498;0.092;2024-03-23T03:53:18;6;6;
64229;PMS5003;50547;49.498;0.092;2024-03-23T03:55:47;6;6;
64229;PMS5003;50547;49.498;0.092;2024-03-23T03:58:16;7;7;
64229;PMS5003;50547;49.498;0.092;2024-03-23T04:00:46;7;7;
64229;PMS5003;50547;49.498;0.092;2024-03-23T04:03:15;7;7;
64229;PMS5003;50547;49.498;0.092;2024-03-23T04:05:48;6;6;
64229;PMS5003;50547;49.498;0.092;2024-03-23T04:08:19;5;5;
64229;PMS5003;50547;49.498;0.092;2024-03-23T04:10:48;7;7;
64229;PMS5003;50547;49.498;0.092;2024-03-23T04:13:18;6;6;
64229;PMS5003;50547;49.498;0.092;2024-03-23T04:15:47;6;6;
64229;PMS5003;50547;49.498;0.092;2024-03-23T04:18:16;4;4;
64229;PMS5003;50547;49.498;0.092;2024-03-23T04:20:45;5;5;
64229;PMS5003;50547;49.498;0.092;2024-03-23T04:23:14;5;5;
64229;PMS5003;50547;49.498;0.092;2024-03-23T04:25:43;6;6;
64229;PMS5003;50547;49.498;0.092;2024-03-23T04:28:12;7;7;
64229;PMS5003;50547;49.498;0.092;2024-03-23T04:30:41;5;5;
64229;PMS5003;50547;49.498;0.092;2024-03-23T04:33:10;5;5;
64229;PMS5003;50547;49.498;0.092;2024-03-23T04:35:39;4;4;
64229;PMS5003;50547;49.498;0.092;2024-03-23T04:38:08;7;7;
64229;PMS5003;50547;49.498;0.092;2024-03-23T04:40:37;7;7;
64229;PMS5003;50547;49.498;0.092;2024-03-23T04:43:06;4;4;
64229;PMS5003;50547;49.498;0.092;2024-03-23T04:45:35;10;10;
64229;PMS5003;50547;49.498;0.092;2024-03-23T04:48:05;6;6;
64229;PMS5003;50547;49.498;0.092;2024-03-23T04:50:34;7;7;
64229;PMS5003;50547;49.498;0.092;2024-03-23T04:53:03;8;8;
64229;PMS5003;50547;49.498;0.092;2024-03-23T04:55:32;8;8;
64229;PMS5003;50547;49.498;0.092;2024-03-23T04:58:01;7;7;
64229;PMS5003;50547;49.498;0.092;2024-03-23T05:00:30;7;7;
64229;PMS5003;50547;49.498;0.092;2024-03-23T05:02:59;8;8;
64229;PMS5003;50547;49.498;0.092;2024-03-23T05:05:29;7;7;
64229;PMS5003;50547;49.498;0.092;2024-03-23T05:07:58;6;6;
64229;PMS5003;50547;49.498;0.092;2024-03-23T05:10:27;9;9;
64229;PMS5003;50547;49.498;0.092;2024-03-23T05:12:56;10;10;
64229;PMS5003;50547;49.498;0.092;2024-03-23T05:15:25;8;8;
64229;PMS5003;50547;49.498;0.092;2024-03-23T05:17:54;9;9;
64229;PMS5003;50547;49.498;0.092;2024-03-23T05:20:23;9;9;
64229;PMS5003;50547;49.498;0.092;2024-03-23T05:22:52;5;5;
64229;PMS5003;50547;49.498;0.092;2024-03-23T05:25:23;7;7;
64229;PMS5003;50547;49.498;0.092;2024-03-23T05:27:52;5;5;
64229;PMS5003;50547;49.498;0.092;2024-03-23T05:30:21;7;7;
64229;PMS5003;50547;49.498;0.092;2024-03-23T05:32:50;8;8;
64229;PMS5003;50547;49.498;0.092;2024-03-23T05:35:20;8;8;
64229;PMS5003;50547;49.498;0.092;2024-03-23T05:37:49;7;7;
64229;PMS5003;50547;49.498;0.092;2024-03-23T05:40:18;6;6;
64229;PMS5003;50547;49.498;0.092;2024-03-23T05:42:47;5;5;
64229;PMS5003;50547;49.498;0.092;2024-03-23T05:45:16;7;7;
64229;PMS5003;50547;49.498;0.092;2024-03-23T05:47:45;7;7;
64229;PMS5003;50547;49.498;0.092;2024-03-23T05:50:14;9;9;
64229;PMS5003;50547;49.498;0.092;2024-03-23T05:52:43;10;10;
64229;PMS5003;50547;49.498;0.092;2024-03-23T05:55:12;9;9;
64229;PMS5003;50547;49.498;0.092;2024-03-23T05:57:41;9;9;
64229;PMS5003;50547;49.498;0.092;2024-03-23T06:00:11;9;9;
64229;PMS5003;50547;49.498;0.092;2024-03-23T06:02:40;7;7;
64229;PMS5003;50547;49.498;0.092;2024-03-23T06:05:09;9;9;
64229;PMS5003;50547;49.498;0.092;2024-03-23T06:07:38;10;10;
64229;PMS5003;50547;49.498;0.092;2024-03-23T06:10:08;6;6;
64229;PMS5003;50547;49.498;0.092;2024-03-23T06:12:37;6;6;
64229;PMS5003;50547;49.498;0.092;2024-03-23T06:15:07;7;7;
64229;PMS5003;50547;49.498;0.092;2024-03-23T06:17:36;10;10;
64229;PMS5003;50547;49.498;0.092;2024-03-23T06:20:06;11;11;
64229;PMS5003;50547;49.498;0.092;2024-03-23T06:22:35;9;9;
64229;PMS5003;50547;49.498;0.092;2024-03-23T06:25:05;9;9;
64229;PMS5003;50547;49.498;0.092;2024-03-23T06:27:34;10;10;
64229;PMS5003;50547;49.498;0.092;2024-03-23T06:30:04;10;10;
64229;PMS5003;50547;49.498;0.092;2024-03-23T06:32:34;11;11;
64229;PMS5003;50547;49.498;0.092;2024-03-23T06:35:03;8;8;
64229;PMS5003;50547;49.498;0.092;2024-03-23T06:37:32;7;7;
64229;PMS5003;50547;49.498;0.092;2024-03-23T06:40:01;10;10;
64229;PMS5003;50547;49.498;0.092;2024-03-23T06:42:31;6;6;
64229;PMS5003;50547;49.498;0.092;2024-03-23T06:45:00;7;7;
64229;PMS5003;50547;49.498;0.092;2024-03-23T06:47:29;8;8;
64229;PMS5003;50547;49.498;0.092;2024-03-23T06:49:59;8;8;
64229;PMS5003;50547;49.498;0.092;2024-03-23T06:52:28;8;8;
64229;PMS5003;50547;49.498;0.092;2024-03-23T06:54:58;11;11;
64229;PMS5003;50547;49.498;0.092;2024-03-23T06:57:27;8;8;
64229;PMS5003;50547;49.498;0.092;2024-03-23T06:59:56;10;10;
64229;PMS5003;50547;49.498;0.092;2024-03-23T07:02:25;11;11;
64229;PMS5003;50547;49.498;0.092;2024-03-23T07:04:54;8;8;
64229;PMS5003;50547;49.498;0.092;2024-03-23T07:07:23;10;10;
64229;PMS5003;50547;49.498;0.092;2024-03-23T07:09:52;11;11;
64229;PMS5003;50547;49.498;0.092;2024-03-23T07:12:21;8;8;
64229;PMS5003;50547;49.498;0.092;2024-03-23T07:14:50;8;8;
64229;PMS5003;50547;49.498;0.092;2024-03-23T07:17:19;6;6;
64229;PMS5003;50547;49.498;0.092;2024-03-23T07:19:48;6;6;
64229;PMS5003;50547;49.498;0.092;2024-03-23T07:22:17;7;7;
64229;PMS5003;50547;49.498;0.092;2024-03-23T07:24:46;7;7;
64229;PMS5003;50547;49.498;0.092;2024-03-23T07:27:16;8;8;
64229;PMS5003;50547;49.498;0.092;2024-03-23T07:29:45;7;7;
64229;PMS5003;50547;49.498;0.092;2024-03-23T07:32:14;7;7;
64229;PMS5003;50547;49.498;0.092;2024-03-23T07:34:43;7;7;
64229;PMS5003;50547;49.498;0.092;2024-03-23T07:37:12;7;7;
64229;PMS5003;50547;49.498;0.092;2024-03-23T07:39:42;7;7;
64229;PMS5003;50547;49.498;0.092;2024-03-23T07:42:07;7;7;
64229;PMS5003;50547;49.498;0.092;2024-03-23T07:44:36;7;7;
64229;PMS5003;50547;49.498;0.092;2024-03-23T07:47:05;10;10;
64229;PMS5003;50547;49.498;0.092;2024-03-23T07:49:34;9;9;
64229;PMS5003;50547;49.498;0.092;2024-03-23T07:52:04;10;10;
64229;PMS5003;50547;49.498;0.092;2024-03-23T07:54:33;11;11;
64229;PMS5003;50547;49.498;0.092;2024-03-23T07:57:03;8;8;
64229;PMS5003;50547;49.498;0.092;2024-03-23T07:59:32;10;10;
64229;PMS5003;50547;49.498;0.092;2024-03-23T08:02:01;10;10;
64229;PMS5003;50547;49.498;0.092;2024-03-23T08:04:30;7;7;
64229;PMS5003;50547;49.498;0.092;2024-03-23T08:06:59;8;8;
64229;PMS5003;50547;49.498;0.092;2024-03-23T08:09:25;8;8;
64229;PMS5003;50547;49.498;0.092;2024-03-23T08:11:54;7;7;
64229;PMS5003;50547;49.498;0.092;2024-03-23T08:14:23;10;10;
64229;PMS5003;50547;49.498;0.092;2024-03-23T08:16:54;8;8;
64229;PMS5003;50547;49.498;0.092;2024-03-23T08:19:23;6;6;
64229;PMS5003;50547;49.498;0.092;2024-03-23T08:21:52;7;7;
64229;PMS5003;50547;49.498;0.092;2024-03-23T08:24:21;7;7;
64229;PMS5003;50547;49.498;0.092;2024-03-23T08:26:50;7;7;
64229;PMS5003;50547;49.498;0.092;2024-03-23T08:29:19;6;6;
64229;PMS5003;50547;49.498;0.092;2024-03-23T08:31:48;8;8;
64229;PMS5003;50547;49.498;0.092;2024-03-23T08:34:17;7;7;
64229;PMS5003;50547;49.498;0.092;2024-03-23T08:36:47;7;7;
64229;PMS5003;50547;49.498;0.092;2024-03-23T08:39:16;6;6;
64229;PMS5003;50547;49.498;0.092;2024-03-23T08:41:45;9;9;
64229;PMS5003;50547;49.498;0.092;2024-03-23T08:44:14;6;6;
64229;PMS5003;50547;49.498;0.092;2024-03-23T08:46:43;7;7;
64229;PMS5003;50547;49.498;0.092;2024-03-23T08:49:12;6;6;
64229;PMS5003;50547;49.498;0.092;2024-03-23T08:51:41;6;6;
64229;PMS5003;50547;49.498;0.092;2024-03-23T08:54:10;7;7;
64229;PMS5003;50547;49.498;0.092;2024-03-23T08:56:40;7;7;
64229;PMS5003;50547;49.498;0.092;2024-03-23T08:59:09;6;6;
64229;PMS5003;50547;49.498;0.092;2024-03-23T09:01:38;6;6;
64229;PMS5003;50547;49.498;0.092;2024-03-23T09:04:07;6;6;
64229;PMS5003;50547;49.498;0.092;2024-03-23T09:06:36;7;7;
64229;PMS5003;50547;49.498;0.092;2024-03-23T09:09:06;7;7;
64229;PMS5003;50547;49.498;0.092;2024-03-23T09:11:35;7;7;
64229;PMS5003;50547;49.498;0.092;2024-03-23T09:14:04;6;6;
64229;PMS5003;50547;49.498;0.092;2024-03-23T09:16:33;8;8;
64229;PMS5003;50547;49.498;0.092;2024-03-23T09:19:02;7;7;
64229;PMS5003;50547;49.498;0.092;2024-03-23T09:21:32;7;7;
64229;PMS5003;50547;49.498;0.092;2024-03-23T09:24:01;7;7;
64229;PMS5003;50547;49.498;0.092;2024-03-23T09:26:30;5;5;
64229;PMS5003;50547;49.498;0.092;2024-03-23T09:28:59;7;7;
64229;PMS5003;50547;49.498;0.092;2024-03-23T09:31:28;7;7;
64229;PMS5003;50547;49.498;0.092;2024-03-23T09:33:57;8;8;
64229;PMS5003;50547;49.498;0.092;2024-03-23T09:36:27;8;8;
64229;PMS5003;50547;49.498;0.092;2024-03-23T09:38:56;9;9;
64229;PMS5003;50547;49.498;0.092;2024-03-23T09:41:26;7;7;
64229;PMS5003;50547;49.498;0.092;2024-03-23T09:43:55;7;7;
64229;PMS5003;50547;49.498;0.092;2024-03-23T09:46:21;6;6;
64229;PMS5003;50547;49.498;0.092;2024-03-23T09:48:50;7;7;
64229;PMS5003;50547;49.498;0.092;2024-03-23T09:51:19;8;8;
64229;PMS5003;50547;49.498;0.092;2024-03-23T09:53:49;7;7;
64229;PMS5003;50547;49.498;0.092;2024-03-23T09:56:19;6;6;
64229;PMS5003;50547;49.498;0.092;2024-03-23T09:58:48;5;5;
64229;PMS5003;50547;49.498;0.092;2024-03-23T10:01:17;6;6;
64229;PMS5003;50547;49.498;0.092;2024-03-23T10:03:46;7;7;
64229;PMS5003;50547;49.498;0.092;2024-03-23T10:06:16;7;7;
64229;PMS5003;50547;49.498;0.092;2024-03-23T10:08:51;7;7;
64229;PMS5003;50547;49.498;0.092;2024-03-23T10:11:20;8;8;
64229;PMS5003;50547;49.498;0.092;2024-03-23T10:13:50;7;7;
64229;PMS5003;50547;49.498;0.092;2024-03-23T10:16:22;7;7;
64229;PMS5003;50547;49.498;0.092;2024-03-23T10:18:52;7;7;
64229;PMS5003;50547;49.498;0.092;2024-03-23T10:21:21;10;10;
64229;PMS5003;50547;49.498;0.092;2024-03-23T10:23:50;7;7;
64229;PMS5003;50547;49.498;0.092;2024-03-23T10:26:20;7;7;
64229;PMS5003;50547;49.498;0.092;2024-03-23T10:28:53;8;8;
64229;PMS5003;50547;49.498;0.092;2024-03-23T10:31:23;7;7;
64229;PMS5003;50547;49.498;0.092;2024-03-23T10:33:53;7;7;
64229;PMS5003;50547;49.498;0.092;2024-03-23T10:36:22;7;7;
64229;PMS5003;50547;49.498;0.092;2024-03-23T10:38:53;8;8;
64229;PMS5003;50547;49.498;0.092;2024-03-23T10:41:23;7;7;
64229;PMS5003;50547;49.498;0.092;2024-03-23T10:43:55;7;7;
64229;PMS5003;50547;49.498;0.092;2024-03-23T10:46:27;7;7;
64229;PMS5003;50547;49.498;0.092;2024-03-23T10:48:56;8;8;
64229;PMS5003;50547;49.498;0.092;2024-03-23T10:51:25;7;7;
64229;PMS5003;50547;49.498;0.092;2024-03-23T10:53:55;7;7;
64229;PMS5003;50547;49.498;0.092;2024-03-23T10:56:27;5;5;
64229;PMS5003;50547;49.498;0.092;2024-03-23T10:58:57;6;6;
64229;PMS5003;50547;49.498;0.092;2024-03-23T11:01:26;7;7;
64229;PMS5003;50547;49.498;0.092;2024-03-23T11:03:55;6;6;
64229;PMS5003;50547;49.498;0.092;2024-03-23T11:06:40;6;6;
64229;PMS5003;50547;49.498;0.092;2024-03-23T11:09:35;7;7;
64229;PMS5003;50547;49.498;0.092;2024-03-23T11:15:39;10;10;
64229;PMS5003;50547;49.498;0.092;2024-03-23T11:18:08;7;7;
64229;PMS5003;50547;49.498;0.092;2024-03-23T11:20:37;6;6;
64229;PMS5003;50547;49.498;0.092;2024-03-23T11:23:07;10;10;
64229;PMS5003;50547;49.498;0.092;2024-03-23T11:25:36;7;7;
64229;PMS5003;50547;49.498;0.092;2024-03-23T11:28:09;8;8;
64229;PMS5003;50547;49.498;0.092;2024-03-23T11:30:40;5;5;
64229;PMS5003;50547;49.498;0.092;2024-03-23T11:33:09;6;6;
64229;PMS5003;50547;49.498;0.092;2024-03-23T11:35:38;6;6;
64229;PMS5003;50547;49.498;0.092;2024-03-23T11:38:09;7;7;
64229;PMS5003;50547;49.498;0.092;2024-03-23T11:40:39;7;7;
64229;PMS5003;50547;49.498;0.092;2024-03-23T11:43:33;6;6;
64229;PMS5003;50547;49.498;0.092;2024-03-23T11:46:02;4;4;
64229;PMS5003;50547;49.498;0.092;2024-03-23T11:48:32;6;6;
64229;PMS5003;50547;49.498;0.092;2024-03-23T11:51:01;7;7;
64229;PMS5003;50547;49.498;0.092;2024-03-23T11:53:30;7;7;
64229;PMS5003;50547;49.498;0.092;2024-03-23T11:55:59;7;7;
64229;PMS5003;50547;49.498;0.092;2024-03-23T11:58:28;7;7;
64229;PMS5003;50547;49.498;0.092;2024-03-23T12:00:58;7;7;
64229;PMS5003;50547;49.498;0.092;2024-03-23T12:03:29;8;8;
64229;PMS5003;50547;49.498;0.092;2024-03-23T12:05:59;7;7;
64229;PMS5003;50547;49.498;0.092;2024-03-23T12:08:29;6;6;
64229;PMS5003;50547;49.498;0.092;2024-03-23T12:11:08;5;5;
64229;PMS5003;50547;49.498;0.092;2024-03-23T12:13:38;4;4;
64229;PMS5003;50547;49.498;0.092;2024-03-23T12:16:09;5;5;
64229;PMS5003;50547;49.498;0.092;2024-03-23T12:18:40;5;5;
64229;PMS5003;50547;49.498;0.092;2024-03-23T12:21:10;9;9;
64229;PMS5003;50547;49.498;0.092;2024-03-23T12:23:40;6;6;
64229;PMS5003;50547;49.498;0.092;2024-03-23T12:26:09;6;6;
64229;PMS5003;50547;49.498;0.092;2024-03-23T12:28:38;6;6;
64229;PMS5003;50547;49.498;0.092;2024-03-23T12:31:07;8;8;
64229;PMS5003;50547;49.498;0.092;2024-03-23T12:33:36;7;7;
64229;PMS5003;50547;49.498;0.092;2024-03-23T12:36:06;7;7;
64229;PMS5003;50547;49.498;0.092;2024-03-23T12:38:35;7;7;
64229;PMS5003;50547;49.498;0.092;2024-03-23T12:41:04;6;6;
64229;PMS5003;50547;49.498;0.092;2024-03-23T12:43:33;7;7;
64229;PMS5003;50547;49.498;0.092;2024-03-23T12:45:59;7;7;
64229;PMS5003;50547;49.498;0.092;2024-03-23T12:48:28;8;8;
64229;PMS5003;50547;49.498;0.092;2024-03-23T12:50:57;9;9;
64229;PMS5003;50547;49.498;0.092;2024-03-23T12:53:26;6;6;
64229;PMS5003;50547;49.498;0.092;2024-03-23T12:55:55;7;7;
64229;PMS5003;50547;49.498;0.092;2024-03-23T12:58:24;6;6;
64229;PMS5003;50547;49.498;0.092;2024-03-23T13:00:53;7;7;
64229;PMS5003;50547;49.498;0.092;2024-03-23T13:03:23;7;7;
64229;PMS5003;50547;49.498;0.092;2024-03-23T13:05:53;8;8;
64229;PMS5003;50547;49.498;0.092;2024-03-23T13:08:22;7;7;
64229;PMS5003;50547;49.498;0.092;2024-03-23T13:10:51;8;8;
64229;PMS5003;50547;49.498;0.092;2024-03-23T13:13:21;7;7;
64229;PMS5003;50547;49.498;0.092;2024-03-23T13:15:50;6;6;
64229;PMS5003;50547;49.498;0.092;2024-03-23T13:18:19;5;5;
64229;PMS5003;50547;49.498;0.092;2024-03-23T13:20:48;8;8;
64229;PMS5003;50547;49.498;0.092;2024-03-23T13:23:17;7;7;
64229;PMS5003;50547;49.498;0.092;2024-03-23T13:25:50;7;7;
64229;PMS5003;50547;49.498;0.092;2024-03-23T13:28:20;7;7;
64229;PMS5003;50547;49.498;0.092;2024-03-23T13:30:50;7;7;
64229;PMS5003;50547;49.498;0.092;2024-03-23T13:33:20;7;7;
64229;PMS5003;50547;49.498;0.092;2024-03-23T13:35:49;7;7;
64229;PMS5003;50547;49.498;0.092;2024-03-23T13:38:19;8;8;
64229;PMS5003;50547;49.498;0.092;2024-03-23T13:40:49;7;7;
64229;PMS5003;50547;49.498;0.092;2024-03-23T13:43:20;5;5;
64229;PMS5003;50547;49.498;0.092;2024-03-23T13:45:51;7;7;
64229;PMS5003;50547;49.498;0.092;2024-03-23T13:48:23;5;5;
64229;PMS5003;50547;49.498;0.092;2024-03-23T13:50:56;7;7;
64229;PMS5003;50547;49.498;0.092;2024-03-23T13:53:26;7;7;
64229;PMS5003;50547;49.498;0.092;2024-03-23T13:55:55;7;7;
64229;PMS5003;50547;49.498;0.092;2024-03-23T13:58:25;7;7;
64229;PMS5003;50547;49.498;0.092;2024-03-23T14:00:56;5;5;
64229;PMS5003;50547;49.498;0.092;2024-03-23T14:03:25;4;4;
64229;PMS5003;50547;49.498;0.092;2024-03-23T14:05:57;6;6;
64229;PMS5003;50547;49.498;0.092;2024-03-23T14:08:23;7;7;
64229;PMS5003;50547;49.498;0.092;2024-03-23T14:10:49;6;6;
64229;PMS5003;50547;49.498;0.092;2024-03-23T14:13:18;6;6;
64229;PMS5003;50547;49.498;0.092;2024-03-23T14:15:52;4;4;
64229;PMS5003;50547;49.498;0.092;2024-03-23T14:18:21;4;4;
64229;PMS5003;50547;49.498;0.092;2024-03-23T14:20:50;5;5;
64229;PMS5003;50547;49.498;0.092;2024-03-23T14:23:17;5;5;
64229;PMS5003;50547;49.498;0.092;2024-03-23T14:25:46;5;5;
64229;PMS5003;50547;49.498;0.092;2024-03-23T14:28:15;7;7;
64229;PMS5003;50547;49.498;0.092;2024-03-23T14:30:44;7;7;
64229;PMS5003;50547;49.498;0.092;2024-03-23T14:33:14;4;4;
64229;PMS5003;50547;49.498;0.092;2024-03-23T14:35:43;4;4;
64229;PMS5003;50547;49.498;0.092;2024-03-23T14:38:12;4;4;
64229;PMS5003;50547;49.498;0.092;2024-03-23T14:40:42;7;7;
64229;PMS5003;50547;49.498;0.092;2024-03-23T14:43:11;5;5;
64229;PMS5003;50547;49.498;0.092;2024-03-23T14:45:45;5;5;
64229;PMS5003;50547;49.498;0.092;2024-03-23T14:48:37;4;4;
64229;PMS5003;50547;49.498;0.092;2024-03-23T14:51:06;5;5;
64229;PMS5003;50547;49.498;0.092;2024-03-23T14:53:37;3;3;
64229;PMS5003;50547;49.498;0.092;2024-03-23T14:56:07;4;4;
64229;PMS5003;50547;49.498;0.092;2024-03-23T14:58:37;4;4;
64229;PMS5003;50547;49.498;0.092;2024-03-23T15:01:07;4;4;
64229;PMS5003;50547;49.498;0.092;2024-03-23T15:03:37;4;4;
64229;PMS5003;50547;49.498;0.092;2024-03-23T15:06:06;6;6;
64229;PMS5003;50547;49.498;0.092;2024-03-23T15:08:35;4;4;
64229;PMS5003;50547;49.498;0.092;2024-03-23T15:11:05;6;6;
64229;PMS5003;50547;49.498;0.092;2024-03-23T15:13:34;5;5;
64229;PMS5003;50547;49.498;0.092;2024-03-23T15:16:04;5;5;
64229;PMS5003;50547;49.498;0.092;2024-03-23T15:18:34;5;5;
64229;PMS5003;50547;49.498;0.092;2024-03-23T15:21:03;7;7;
64229;PMS5003;50547;49.498;0.092;2024-03-23T15:23:33;6;6;
64229;PMS5003;50547;49.498;0.092;2024-03-23T15:26:02;5;5;
64229;PMS5003;50547;49.498;0.092;2024-03-23T15:28:31;4;4;
64229;PMS5003;50547;49.498;0.092;2024-03-23T15:31:00;4;4;
64229;PMS5003;50547;49.498;0.092;2024-03-23T15:33:29;3;3;
64229;PMS5003;50547;49.498;0.092;2024-03-23T15:35:59;5;5;
64229;PMS5003;50547;49.498;0.092;2024-03-23T15:38:28;4;4;
64229;PMS5003;50547;49.498;0.092;2024-03-23T15:40:58;5;5;
64229;PMS5003;50547;49.498;0.092;2024-03-23T15:43:27;4;4;
64229;PMS5003;50547;49.498;0.092;2024-03-23T15:45:56;5;5;
64229;PMS5003;50547;49.498;0.092;2024-03-23T15:48:26;4;4;
64229;PMS5003;50547;49.498;0.092;2024-03-23T15:50:55;4;4;
64229;PMS5003;50547;49.498;0.092;2024-03-23T15:53:26;4;4;
64229;PMS5003;50547;49.498;0.092;2024-03-23T15:55:56;6;6;
64229;PMS5003;50547;49.498;0.092;2024-03-23T15:58:26;5;5;
64229;PMS5003;50547;49.498;0.092;2024-03-23T16:00:56;4;4;
64229;PMS5003;50547;49.498;0.092;2024-03-23T16:03:26;9;9;
64229;PMS5003;50547;49.498;0.092;2024-03-23T16:05:56;5;5;
64229;PMS5003;50547;49.498;0.092;2024-03-23T16:08:26;5;5;
64229;PMS5003;50547;49.498;0.092;2024-03-23T16:10:59;4;4;
64229;PMS5003;50547;49.498;0.092;2024-03-23T16:13:29;6;6;
64229;PMS5003;50547;49.498;0.092;2024-03-23T16:15:58;7;7;
64229;PMS5003;50547;49.498;0.092;2024-03-23T16:18:29;5;5;
64229;PMS5003;50547;49.498;0.092;2024-03-23T16:20:59;7;7;
64229;PMS5003;50547;49.498;0.092;2024-03-23T16:23:29;7;7;
64229;PMS5003;50547;49.498;0.092;2024-03-23T16:26:00;4;4;
64229;PMS5003;50547;49.498;0.092;2024-03-23T16:28:30;7;7;
64229;PMS5003;50547;49.498;0.092;2024-03-23T16:31:00;7;7;
64229;PMS5003;50547;49.498;0.092;2024-03-23T16:33:31;7;7;
64229;PMS5003;50547;49.498;0.092;2024-03-23T16:36:01;6;6;
64229;PMS5003;50547;49.498;0.092;2024-03-23T16:38:32;5;5;
64229;PMS5003;50547;49.498;0.092;2024-03-23T16:41:03;4;4;
64229;PMS5003;50547;49.498;0.092;2024-03-23T16:43:33;4;4;
64229;PMS5003;50547;49.498;0.092;2024-03-23T16:46:04;4;4;
64229;PMS5003;50547;49.498;0.092;2024-03-23T16:48:34;6;6;
64229;PMS5003;50547;49.498;0.092;2024-03-23T16:51:13;4;4;
64229;PMS5003;50547;49.498;0.092;2024-03-23T16:53:42;4;4;
64229;PMS5003;50547;49.498;0.092;2024-03-23T16:56:11;4;4;
64229;PMS5003;50547;49.498;0.092;2024-03-23T16:58:40;8;8;
64229;PMS5003;50547;49.498;0.092;2024-03-23T17:01:11;7;7;
64229;PMS5003;50547;49.498;0.092;2024-03-23T17:03:41;7;7;
64229;PMS5003;50547;49.498;0.092;2024-03-23T17:06:10;6;6;
64229;PMS5003;50547;49.498;0.092;2024-03-23T17:08:39;7;7;
64229;PMS5003;50547;49.498;0.092;2024-03-23T17:11:08;7;7;
64229;PMS5003;50547;49.498;0.092;2024-03-23T17:13:37;5;5;
64229;PMS5003;50547;49.498;0.092;2024-03-23T17:16:06;6;6;
64229;PMS5003;50547;49.498;0.092;2024-03-23T17:18:35;7;7;
64229;PMS5003;50547;49.498;0.092;2024-03-23T17:21:04;6;6;
64229;PMS5003;50547;49.498;0.092;2024-03-23T17:23:33;7;7;
64229;PMS5003;50547;49.498;0.092;2024-03-23T17:26:02;7;7;
64229;PMS5003;50547;49.498;0.092;2024-03-23T17:28:32;5;5;
64229;PMS5003;50547;49.498;0.092;2024-03-23T17:31:01;5;5;
64229;PMS5003;50547;49.498;0.092;2024-03-23T17:33:30;4;4;
64229;PMS5003;50547;49.498;0.092;2024-03-23T17:36:02;4;4;
64229;PMS5003;50547;49.498;0.092;2024-03-23T17:38:31;4;4;
64229;PMS5003;50547;49.498;0.092;2024-03-23T17:41:00;4;4;
64229;PMS5003;50547;49.498;0.092;2024-03-23T17:43:29;3;3;
64229;PMS5003;50547;49.498;0.092;2024-03-23T17:45:58;3;3;
64229;PMS5003;50547;49.498;0.092;2024-03-23T17:48:27;3;3;
64229;PMS5003;50547;49.498;0.092;2024-03-23T17:51:00;3;3;
64229;PMS5003;50547;49.498;0.092;2024-03-23T17:53:30;4;4;
64229;PMS5003;50547;49.498;0.092;2024-03-23T17:56:06;4;4;
64229;PMS5003;50547;49.498;0.092;2024-03-23T17:58:37;4;4;